Terminal Aerodrome Forecast
Issued by NWS

Home | Current Version | Previous Version | Text Only | Print | Product List | Glossary On
Versions: 1 2 3 4 5 6 7 8 9 10 11 12 13 14 15 16 17 18 19
190
FTUS43 KGRB 280520
TAFATW
TAF
KATW 280520Z 2806/2906 30006KT P6SM VCSH SCT012 OVC040
      TEMPO 2806/2810 BKN012
     FM281000 36006KT P6SM VCSH BKN012 OVC040
     FM281600 03010G17KT P6SM OVC015
     FM281800 03011G18KT P6SM OVC020
     FM282200 03011G18KT P6SM BKN035 BKN080
     FM290100 02010KT P6SM SCT035=

USA.gov is the U.S. government's official web portal to all federal, state and local government web resources and services.